createdAt,value
2022-08-22T00:00:34.657Z,49.11
2022-08-22T00:01:40.468Z,48.92
2022-08-22T00:02:42.672Z,49.74
2022-08-22T00:02:42.775Z,50.05
2022-08-22T00:02:45.055Z,52.22
2022-08-22T00:02:56.359Z,49.15
2022-08-22T00:02:59.616Z,51.54
2022-08-22T00:03:15.030Z,49.40
2022-08-22T00:03:15.293Z,48.76
2022-08-22T00:04:15.832Z,48.83
2022-08-22T00:05:24.794Z,49.12
2022-08-22T00:06:31.655Z,49.01
2022-08-22T00:07:40.934Z,49.06
2022-08-22T00:08:50.703Z,48.93
2022-08-22T00:09:57.428Z,48.84
2022-08-22T00:11:03.345Z,49.02
2022-08-22T00:12:14.193Z,49.37
2022-08-22T00:13:19.877Z,49.23
2022-08-22T00:14:25.363Z,49.61
2022-08-22T00:15:42.170Z,49.21
2022-08-22T00:16:50.885Z,49.36
2022-08-22T00:17:59.042Z,49.46
2022-08-22T00:19:07.089Z,49.65
2022-08-22T00:20:13.412Z,49.67
2022-08-22T00:21:19.437Z,49.35
2022-08-22T00:22:26.111Z,49.62
2022-08-22T00:23:31.540Z,49.41
2022-08-22T00:24:38.892Z,49.39
2022-08-22T00:25:48.869Z,49.37
2022-08-22T00:26:54.272Z,49.39
2022-08-22T00:27:59.747Z,49.51
2022-08-22T00:29:03.541Z,49.80
2022-08-22T00:30:08.869Z,50.14
2022-08-22T00:31:16.072Z,49.94
2022-08-22T00:32:21.368Z,50.09
2022-08-22T00:33:28.038Z,50.04
2022-08-22T00:34:35.305Z,50.04
2022-08-22T00:35:45.020Z,50.26
2022-08-22T00:36:52.235Z,50.19
2022-08-22T00:38:00.274Z,50.13
2022-08-22T00:39:07.602Z,49.92
2022-08-22T00:40:17.582Z,49.82
2022-08-22T00:41:35.179Z,50.09
2022-08-22T00:42:46.712Z,50.09
2022-08-22T00:43:59.458Z,49.92
2022-08-22T00:45:12.021Z,49.72
2022-08-22T00:46:24.846Z,50.16
2022-08-22T00:47:37.259Z,49.94
2022-08-22T00:48:50.551Z,50.28
2022-08-22T00:50:03.372Z,50.30
2022-08-22T00:51:23.732Z,50.15
2022-08-22T00:52:54.149Z,50.15
2022-08-22T00:54:06.789Z,50.21
2022-08-22T00:55:35.044Z,50.62
2022-08-22T00:56:47.623Z,50.63
2022-08-22T00:57:56.146Z,50.72
2022-08-22T00:59:23.798Z,50.71
2022-08-22T01:00:29.065Z,50.52
2022-08-22T01:01:32.171Z,50.30
2022-08-22T01:02:42.923Z,50.37
2022-08-22T01:03:50.610Z,50.51
2022-08-22T01:05:01.739Z,50.12
2022-08-22T01:06:11.834Z,50.00
2022-08-22T01:07:23.254Z,50.00
2022-08-22T01:08:35.452Z,50.08
2022-08-22T01:09:45.569Z,50.30
2022-08-22T01:10:56.389Z,50.07
2022-08-22T01:12:11.952Z,50.44
2022-08-22T01:13:24.305Z,50.45
2022-08-22T01:14:42.748Z,51.01
2022-08-22T01:15:44.914Z,50.93
2022-08-22T01:17:01.678Z,50.69
2022-08-22T01:18:14.617Z,50.86
2022-08-22T01:19:41.566Z,51.02
2022-08-22T01:21:10.367Z,50.90
2022-08-22T01:22:27.941Z,50.87
2022-08-22T01:23:56.513Z,50.73
2022-08-22T01:25:22.485Z,51.18
2022-08-22T01:26:44.686Z,51.37
2022-08-22T01:28:08.255Z,51.47
2022-08-22T01:29:31.587Z,51.50
2022-08-22T01:30:55.404Z,51.49
2022-08-22T01:32:25.685Z,51.50
2022-08-22T01:33:43.415Z,51.43
2022-08-22T01:35:04.811Z,51.53
2022-08-22T01:36:24.185Z,51.64
2022-08-22T01:37:43.978Z,51.18
2022-08-22T01:39:04.858Z,51.62
2022-08-22T01:40:24.862Z,51.63
2022-08-22T01:41:49.689Z,51.59
2022-08-22T01:43:06.869Z,51.90
2022-08-22T01:44:16.483Z,52.10
2022-08-22T01:45:36.704Z,51.91
2022-08-22T01:46:44.987Z,52.30
2022-08-22T01:47:50.666Z,52.07
2022-08-22T01:49:04.156Z,52.21
2022-08-22T01:50:13.321Z,51.98
2022-08-22T01:51:21.948Z,52.20
2022-08-22T01:52:30.104Z,52.00
2022-08-22T01:53:43.584Z,52.10
2022-08-22T01:54:48.679Z,52.14
2022-08-22T01:55:57.942Z,52.03
2022-08-22T01:57:02.368Z,51.82
2022-08-22T01:58:15.225Z,51.89
2022-08-22T01:59:25.377Z,51.53
2022-08-22T02:00:52.730Z,51.64
2022-08-22T02:01:58.972Z,51.64
2022-08-22T02:03:09.888Z,51.64
2022-08-22T02:04:14.849Z,52.14
2022-08-22T02:05:27.820Z,51.86
2022-08-22T02:06:37.717Z,51.69
2022-08-22T02:07:45.429Z,51.65
2022-08-22T02:08:50.606Z,52.04
2022-08-22T02:10:01.316Z,51.97
2022-08-22T02:11:04.849Z,51.65
2022-08-22T02:12:21.566Z,52.03
2022-08-22T02:13:33.781Z,51.87
2022-08-22T02:14:42.015Z,51.79
2022-08-22T02:15:47.310Z,51.68
2022-08-22T02:16:52.680Z,51.42
2022-08-22T02:18:01.231Z,51.50
2022-08-22T02:19:20.518Z,51.30
2022-08-22T02:20:26.240Z,51.35
2022-08-22T02:21:33.873Z,51.65
2022-08-22T02:22:44.620Z,51.73
2022-08-22T02:23:50.646Z,51.88
2022-08-22T02:25:00.021Z,51.98
2022-08-22T02:26:06.212Z,52.03
2022-08-22T02:27:11.819Z,51.60
2022-08-22T02:28:17.521Z,51.78
2022-08-22T02:29:23.473Z,51.60
2022-08-22T02:30:29.707Z,51.99
2022-08-22T02:31:38.253Z,51.64
2022-08-22T02:32:47.242Z,51.85
2022-08-22T02:33:54.443Z,51.80
2022-08-22T02:35:04.082Z,51.48
2022-08-22T02:36:14.623Z,51.53
2022-08-22T02:37:21.922Z,51.75
2022-08-22T02:38:28.296Z,51.46
2022-08-22T02:39:37.320Z,51.83
2022-08-22T02:40:41.483Z,51.71
2022-08-22T02:41:49.578Z,51.87
2022-08-22T02:42:55.440Z,51.96
2022-08-22T02:44:00.921Z,51.63
2022-08-22T02:45:06.233Z,51.83
2022-08-22T02:46:15.441Z,51.84
2022-08-22T02:47:25.885Z,51.88
2022-08-22T02:48:35.692Z,52.25
2022-08-22T02:49:44.124Z,52.10
2022-08-22T02:50:53.135Z,52.26
2022-08-22T02:51:58.829Z,52.21
2022-08-22T02:53:07.164Z,52.08
2022-08-22T02:54:14.365Z,51.71
2022-08-22T02:55:20.058Z,51.80
2022-08-22T02:56:25.704Z,51.77
2022-08-22T02:57:30.543Z,51.69
2022-08-22T02:58:44.060Z,51.71
2022-08-22T02:59:59.344Z,51.71
2022-08-22T03:01:20.758Z,52.06
2022-08-22T03:02:27.782Z,51.93
2022-08-22T03:03:32.530Z,51.85
2022-08-22T03:04:47.461Z,51.98
2022-08-22T03:05:52.358Z,51.63
2022-08-22T03:07:12.410Z,51.66
2022-08-22T03:08:22.809Z,51.62
2022-08-22T03:09:27.576Z,51.71
2022-08-22T03:10:31.766Z,51.90
2022-08-22T03:11:36.767Z,51.64
2022-08-22T03:12:42.981Z,51.64
2022-08-22T03:13:49.466Z,51.94
2022-08-22T03:14:58.563Z,51.60
2022-08-22T03:16:04.449Z,51.66
2022-08-22T03:17:10.912Z,51.39
2022-08-22T03:18:19.650Z,51.57
2022-08-22T03:19:26.263Z,51.37
2022-08-22T03:20:41.102Z,51.50
2022-08-22T03:21:45.914Z,51.49
2022-08-22T03:22:53.768Z,51.23
2022-08-22T03:24:01.768Z,51.13
2022-08-22T03:25:08.578Z,51.06
2022-08-22T03:26:14.616Z,51.42
2022-08-22T03:27:32.919Z,51.39
2022-08-22T03:28:39.766Z,51.16
2022-08-22T03:30:02.392Z,51.25
2022-08-22T03:31:12.573Z,51.16
2022-08-22T03:32:15.791Z,51.27
2022-08-22T03:33:20.494Z,51.58
2022-08-22T03:34:23.566Z,51.64
2022-08-22T03:35:30.809Z,51.94
2022-08-22T03:36:34.088Z,51.04
2022-08-22T03:37:39.191Z,50.92
2022-08-22T03:38:49.648Z,51.09
2022-08-22T03:39:56.834Z,51.54
2022-08-22T03:41:09.399Z,52.61
2022-08-22T03:42:22.371Z,52.87
2022-08-22T03:43:47.583Z,53.16
2022-08-22T03:45:08.053Z,53.43
2022-08-22T03:46:23.992Z,53.43
2022-08-22T03:47:54.015Z,53.43
2022-08-22T03:49:25.411Z,52.88
2022-08-22T03:50:42.935Z,52.85
2022-08-22T03:51:56.135Z,53.08
2022-08-22T03:53:19.209Z,52.98
2022-08-22T03:54:52.459Z,52.84
2022-08-22T03:56:23.376Z,53.53
2022-08-22T03:57:48.683Z,53.90
2022-08-22T03:59:10.070Z,53.61
2022-08-22T04:00:20.549Z,53.80
2022-08-22T04:01:33.926Z,53.70
2022-08-22T04:02:50.606Z,53.19
2022-08-22T04:04:12.422Z,53.20
2022-08-22T04:05:45.515Z,53.30
2022-08-22T04:07:03.759Z,53.05
2022-08-22T04:08:26.630Z,52.65
2022-08-22T04:09:37.003Z,52.58
2022-08-22T04:10:58.297Z,52.59
2022-08-22T04:12:17.962Z,52.47
2022-08-22T04:13:30.355Z,52.48
2022-08-22T04:14:58.115Z,52.54
2022-08-22T04:16:08.590Z,52.56
2022-08-22T04:17:29.199Z,52.73
2022-08-22T04:18:38.436Z,52.30
2022-08-22T04:19:54.600Z,53.21
2022-08-22T04:21:14.150Z,53.52
2022-08-22T04:22:27.095Z,53.22
2022-08-22T04:23:47.604Z,53.56
2022-08-22T04:24:54.138Z,53.12
2022-08-22T04:25:59.482Z,53.04
2022-08-22T04:27:11.822Z,52.91
2022-08-22T04:28:18.691Z,52.95
2022-08-22T04:29:26.167Z,52.71
2022-08-22T04:30:32.724Z,52.67
2022-08-22T04:31:36.798Z,53.08
2022-08-22T04:32:42.832Z,52.89
2022-08-22T04:33:47.801Z,52.60
2022-08-22T04:34:52.419Z,53.06
2022-08-22T04:35:59.919Z,52.72
2022-08-22T04:37:05.094Z,53.18
2022-08-22T04:38:10.376Z,53.03
2022-08-22T04:39:18.477Z,53.08
2022-08-22T04:40:24.434Z,53.25
2022-08-22T04:41:42.029Z,53.38
2022-08-22T04:42:46.233Z,53.22
2022-08-22T04:43:52.134Z,53.32
2022-08-22T04:44:57.804Z,53.49
2022-08-22T04:46:05.463Z,53.23
2022-08-22T04:47:13.326Z,53.23
2022-08-22T04:48:21.676Z,52.94
2022-08-22T04:49:29.388Z,53.25
2022-08-22T04:50:37.996Z,53.25
2022-08-22T04:51:45.545Z,53.29
2022-08-22T04:53:09.960Z,52.94
2022-08-22T04:54:24.261Z,52.98
2022-08-22T04:55:32.962Z,52.95
2022-08-22T04:56:39.571Z,52.39
2022-08-22T04:57:47.337Z,52.83
2022-08-22T04:58:55.416Z,52.90
2022-08-22T04:59:59.175Z,53.05
2022-08-22T05:01:05.732Z,53.05
2022-08-22T05:02:09.743Z,53.09
2022-08-22T05:03:14.615Z,52.83
2022-08-22T05:04:20.962Z,52.93
2022-08-22T05:05:24.792Z,52.82
2022-08-22T05:06:29.713Z,52.63
2022-08-22T05:07:36.215Z,52.75
2022-08-22T05:08:41.776Z,52.82
2022-08-22T05:09:48.570Z,52.96
2022-08-22T05:10:52.286Z,52.61
2022-08-22T05:11:57.578Z,52.57
2022-08-22T05:13:02.811Z,52.68
2022-08-22T05:14:10.103Z,52.54
2022-08-22T05:15:16.198Z,52.65
2022-08-22T05:16:29.341Z,52.95
2022-08-22T05:17:32.400Z,52.62
2022-08-22T05:18:37.835Z,52.70
2022-08-22T05:19:41.531Z,52.65
2022-08-22T05:20:46.770Z,52.57
2022-08-22T05:21:51.791Z,52.65
2022-08-22T05:22:57.729Z,52.46
2022-08-22T05:24:03.180Z,52.64
2022-08-22T05:25:08.719Z,53.07
2022-08-22T05:26:12.401Z,53.01
2022-08-22T05:27:16.979Z,52.95
2022-08-22T05:28:23.959Z,53.26
2022-08-22T05:29:29.872Z,53.31
2022-08-22T05:30:33.941Z,53.89
2022-08-22T05:31:38.920Z,53.17
2022-08-22T05:32:45.447Z,53.18
2022-08-22T05:33:49.486Z,53.23
2022-08-22T05:34:52.279Z,53.14
2022-08-22T05:35:58.058Z,53.73
2022-08-22T05:37:04.645Z,53.34
2022-08-22T05:38:12.617Z,53.78
2022-08-22T05:39:19.503Z,53.72
2022-08-22T05:40:24.540Z,53.67
2022-08-22T05:41:28.922Z,53.62
2022-08-22T05:42:34.007Z,54.20
2022-08-22T05:43:38.837Z,54.11
2022-08-22T05:44:42.671Z,53.84
2022-08-22T05:45:47.451Z,54.04
2022-08-22T05:46:51.799Z,54.65
2022-08-22T05:47:59.063Z,53.43
2022-08-22T05:49:02.598Z,53.95
2022-08-22T05:50:07.342Z,53.63
2022-08-22T05:51:15.481Z,53.53
2022-08-22T05:52:34.429Z,53.63
2022-08-22T05:53:38.840Z,53.31
2022-08-22T05:54:47.283Z,53.54
2022-08-22T05:55:55.439Z,53.70
2022-08-22T05:57:07.375Z,53.33
2022-08-22T05:58:18.313Z,53.46
2022-08-22T05:59:25.045Z,53.57
2022-08-22T06:00:32.593Z,53.82
2022-08-22T06:01:37.406Z,54.16
2022-08-22T06:02:48.392Z,53.58
2022-08-22T06:03:57.618Z,53.37
2022-08-22T06:05:01.951Z,53.53
2022-08-22T06:06:09.539Z,53.47
2022-08-22T06:07:17.317Z,53.40
2022-08-22T06:08:21.361Z,53.57
2022-08-22T06:09:35.354Z,53.54
2022-08-22T06:10:40.085Z,53.75
2022-08-22T06:11:52.019Z,53.77
2022-08-22T06:12:55.911Z,53.84
2022-08-22T06:14:07.933Z,53.83
2022-08-22T06:15:15.224Z,53.77
2022-08-22T06:16:24.813Z,53.96
2022-08-22T06:17:29.155Z,53.59
2022-08-22T06:18:32.681Z,53.63
2022-08-22T06:19:36.121Z,53.31
2022-08-22T06:20:40.795Z,53.04
2022-08-22T06:21:44.385Z,53.04
2022-08-22T06:22:51.570Z,53.22
2022-08-22T06:23:57.669Z,53.56
2022-08-22T06:25:03.155Z,53.42
2022-08-22T06:26:06.673Z,53.24
2022-08-22T06:27:25.560Z,53.14
2022-08-22T06:28:29.595Z,53.18
2022-08-22T06:29:36.253Z,53.47
2022-08-22T06:30:39.649Z,53.19
2022-08-22T06:31:45.864Z,53.11
2022-08-22T06:32:59.865Z,53.12
2022-08-22T06:34:05.833Z,53.31
2022-08-22T06:35:11.485Z,53.14
2022-08-22T06:36:34.186Z,53.21
2022-08-22T06:37:38.593Z,53.23
2022-08-22T06:38:54.382Z,53.83
2022-08-22T06:39:56.960Z,53.71
2022-08-22T06:41:00.894Z,53.64
2022-08-22T06:42:04.847Z,53.76
2022-08-22T06:43:07.691Z,53.60
2022-08-22T06:44:10.447Z,53.91
2022-08-22T06:45:17.407Z,53.87
2022-08-22T06:46:20.384Z,53.58
2022-08-22T06:47:25.931Z,53.65
2022-08-22T06:48:27.925Z,54.11
2022-08-22T06:49:31.813Z,53.91
2022-08-22T06:50:35.128Z,53.36
2022-08-22T06:51:39.193Z,53.66
2022-08-22T06:52:50.126Z,53.80
2022-08-22T06:53:54.815Z,54.04
2022-08-22T06:55:00.245Z,53.57
2022-08-22T06:56:06.009Z,53.53
2022-08-22T06:57:25.142Z,53.86
2022-08-22T06:58:33.991Z,54.02
2022-08-22T06:59:38.381Z,54.10
2022-08-22T07:00:41.801Z,54.01
2022-08-22T07:01:48.973Z,53.97
2022-08-22T07:02:56.345Z,53.72
2022-08-22T07:03:59.324Z,53.77
2022-08-22T07:05:02.279Z,53.37
2022-08-22T07:06:04.702Z,52.76
2022-08-22T07:07:07.487Z,52.73
2022-08-22T07:08:10.939Z,52.26
2022-08-22T07:09:19.870Z,52.34
2022-08-22T07:10:22.714Z,52.34
2022-08-22T07:11:28.093Z,51.89
2022-08-22T07:12:35.348Z,51.53
2022-08-22T07:13:38.912Z,51.53
2022-08-22T07:14:44.070Z,51.46
2022-08-22T07:15:53.717Z,51.80
2022-08-22T07:16:58.954Z,51.26
2022-08-22T07:18:05.569Z,51.48
2022-08-22T07:19:08.507Z,51.21
2022-08-22T07:20:18.341Z,50.72
2022-08-22T07:21:25.165Z,50.90
2022-08-22T07:22:32.537Z,51.00
2022-08-22T07:23:36.561Z,51.00
2022-08-22T07:24:42.413Z,50.88
2022-08-22T07:25:51.817Z,51.29
2022-08-22T07:27:04.805Z,51.13
2022-08-22T07:28:21.609Z,51.26
2022-08-22T07:29:48.334Z,50.94
2022-08-22T07:30:55.681Z,50.88
2022-08-22T07:32:03.476Z,50.63
2022-08-22T07:33:17.756Z,50.35
2022-08-22T07:34:37.665Z,50.50
2022-08-22T07:35:42.073Z,50.39
2022-08-22T07:37:00.158Z,50.38
2022-08-22T07:38:10.020Z,49.91
2022-08-22T07:39:25.504Z,49.72
2022-08-22T07:40:32.181Z,49.84
2022-08-22T07:41:38.295Z,49.75
2022-08-22T07:42:44.782Z,49.69
2022-08-22T07:43:51.607Z,49.83
2022-08-22T07:45:00.769Z,49.51
2022-08-22T07:46:08.089Z,49.58
2022-08-22T07:47:12.978Z,49.54
2022-08-22T07:48:25.754Z,49.51
2022-08-22T07:49:31.321Z,49.68
2022-08-22T07:50:36.535Z,49.71
2022-08-22T07:51:42.711Z,49.79
2022-08-22T07:52:46.845Z,49.40
2022-08-22T07:53:52.305Z,49.72
2022-08-22T07:54:57.941Z,49.53
2022-08-22T07:56:01.669Z,49.44
2022-08-22T07:57:07.068Z,49.56
2022-08-22T07:58:11.320Z,49.49
2022-08-22T07:59:17.071Z,49.55
2022-08-22T08:00:21.407Z,49.24
2022-08-22T08:01:25.507Z,49.61
2022-08-22T08:02:28.381Z,49.56
2022-08-22T08:03:32.809Z,49.63
2022-08-22T08:04:39.970Z,49.55
2022-08-22T08:05:44.302Z,49.25
2022-08-22T08:06:48.363Z,49.37
2022-08-22T08:07:51.909Z,49.71
2022-08-22T08:08:55.981Z,49.30
2022-08-22T08:10:00.786Z,49.54
2022-08-22T08:11:04.611Z,49.50
2022-08-22T08:12:09.158Z,49.00
2022-08-22T08:13:12.892Z,49.11
2022-08-22T08:14:16.833Z,49.22
2022-08-22T08:15:20.695Z,49.21
2022-08-22T08:16:25.608Z,49.11
2022-08-22T08:17:39.447Z,49.15
2022-08-22T08:18:45.117Z,49.30
2022-08-22T08:19:47.447Z,49.09
2022-08-22T08:20:54.467Z,49.04
2022-08-22T08:21:57.856Z,49.21
2022-08-22T08:22:59.669Z,49.14
2022-08-22T08:24:03.271Z,49.12
2022-08-22T08:25:06.357Z,48.90
2022-08-22T08:26:11.005Z,48.91
2022-08-22T08:27:31.658Z,48.73
2022-08-22T08:28:38.661Z,48.64
2022-08-22T08:29:43.267Z,48.92
2022-08-22T08:30:46.824Z,48.77
2022-08-22T08:31:49.668Z,48.80
2022-08-22T08:32:57.617Z,48.68
2022-08-22T08:34:21.411Z,48.67
2022-08-22T08:35:25.560Z,48.82
2022-08-22T08:36:34.463Z,48.45
2022-08-22T08:37:43.132Z,48.38
2022-08-22T08:38:47.953Z,48.58
2022-08-22T08:39:52.991Z,48.75
2022-08-22T08:41:01.642Z,48.37
2022-08-22T08:42:25.304Z,48.46
2022-08-22T08:43:36.654Z,48.54
2022-08-22T08:44:50.448Z,48.50
2022-08-22T08:46:01.474Z,48.30
2022-08-22T08:47:17.093Z,48.53
2022-08-22T08:48:37.216Z,48.70
2022-08-22T08:49:50.909Z,48.25
2022-08-22T08:51:02.140Z,48.26
2022-08-22T08:52:14.186Z,48.59
2022-08-22T08:55:21.877Z,48.13
2022-08-22T08:56:30.069Z,48.15
2022-08-22T08:57:38.633Z,48.40
2022-08-22T08:58:43.399Z,48.32
2022-08-22T08:59:50.679Z,48.04
2022-08-22T09:00:56.984Z,48.08
2022-08-22T09:02:23.639Z,48.50
2022-08-22T09:03:41.687Z,48.16
2022-08-22T09:05:19.535Z,48.24
2022-08-22T09:06:38.861Z,48.13
2022-08-22T09:07:51.733Z,48.36
2022-08-22T09:09:00.321Z,48.15
2022-08-22T09:10:11.381Z,48.14
2022-08-22T09:11:31.061Z,48.02
2022-08-22T09:12:56.265Z,48.28
2022-08-22T09:14:17.218Z,47.99
2022-08-22T09:15:26.353Z,48.00
2022-08-22T09:16:45.060Z,48.24
2022-08-22T09:18:07.736Z,48.25
2022-08-22T09:19:21.741Z,48.18
2022-08-22T09:20:33.085Z,48.08
2022-08-22T09:21:53.401Z,47.86
2022-08-22T09:23:10.958Z,48.23
2022-08-22T09:24:32.912Z,48.07
2022-08-22T09:25:38.651Z,47.95
2022-08-22T09:26:48.323Z,47.91
2022-08-22T09:27:57.048Z,47.65
2022-08-22T09:29:07.294Z,47.56
2022-08-22T09:30:12.016Z,47.94
2022-08-22T09:31:51.561Z,48.01
2022-08-22T09:32:58.953Z,47.90
2022-08-22T09:34:05.966Z,47.63
2022-08-22T09:35:13.887Z,47.49
2022-08-22T09:36:19.165Z,47.75
2022-08-22T09:37:30.521Z,47.50
2022-08-22T09:38:48.025Z,47.45
2022-08-22T09:40:00.139Z,47.43
2022-08-22T09:41:12.131Z,47.53
2022-08-22T09:42:18.289Z,47.85
2022-08-22T09:43:23.664Z,47.69
2022-08-22T09:44:31.071Z,47.69
2022-08-22T09:45:38.425Z,47.51
2022-08-22T09:46:51.028Z,47.69
2022-08-22T09:48:00.095Z,47.74
2022-08-22T09:49:13.208Z,47.84
2022-08-22T09:50:18.188Z,47.66
2022-08-22T09:51:32.670Z,47.83
2022-08-22T09:52:51.809Z,47.49
2022-08-22T09:54:02.353Z,47.47
2022-08-22T09:55:09.604Z,47.57
2022-08-22T09:56:21.208Z,47.70
2022-08-22T09:57:33.263Z,47.29
2022-08-22T09:58:41.709Z,47.53
2022-08-22T09:59:59.504Z,47.70
2022-08-22T10:01:07.065Z,47.38
2022-08-22T10:02:17.280Z,47.67
2022-08-22T10:03:24.964Z,47.28
2022-08-22T10:04:42.088Z,47.35
2022-08-22T10:05:46.783Z,47.35
2022-08-22T10:06:55.974Z,47.26
2022-08-22T10:08:12.896Z,47.48
2022-08-22T10:09:26.430Z,47.42
2022-08-22T10:10:46.739Z,47.49
2022-08-22T10:11:54.177Z,47.58
2022-08-22T10:13:00.632Z,47.37
2022-08-22T10:14:05.764Z,47.51
2022-08-22T10:15:16.180Z,47.38
2022-08-22T10:16:22.570Z,47.44
2022-08-22T10:17:30.616Z,47.19
2022-08-22T10:18:37.057Z,47.20
2022-08-22T10:19:49.443Z,47.20
2022-08-22T10:20:59.477Z,47.53
2022-08-22T10:22:17.288Z,47.27
2022-08-22T10:23:24.082Z,47.39
2022-08-22T10:24:36.024Z,47.38
2022-08-22T10:25:49.932Z,47.23
2022-08-22T10:26:54.499Z,47.41
2022-08-22T10:28:03.273Z,47.03
2022-08-22T10:29:09.057Z,47.39
2022-08-22T10:30:13.423Z,47.12
2022-08-22T10:31:22.443Z,47.29
2022-08-22T10:32:30.696Z,47.30
2022-08-22T10:33:35.513Z,47.23
2022-08-22T10:34:40.557Z,47.10
2022-08-22T10:35:49.205Z,47.20
2022-08-22T10:36:58.623Z,47.16
2022-08-22T10:38:10.778Z,47.35
2022-08-22T10:39:19.923Z,47.09
2022-08-22T10:40:28.137Z,47.08
2022-08-22T10:41:36.797Z,47.38
2022-08-22T10:42:42.280Z,47.16
2022-08-22T10:43:56.576Z,47.35
2022-08-22T10:45:23.979Z,47.35
2022-08-22T10:46:42.201Z,47.26
2022-08-22T10:48:04.806Z,47.27
2022-08-22T10:49:17.906Z,47.04
2022-08-22T10:50:22.747Z,47.10
2022-08-22T10:51:36.704Z,47.34
2022-08-22T10:52:44.367Z,47.06
2022-08-22T10:53:55.908Z,47.31
2022-08-22T10:55:05.712Z,47.24
2022-08-22T10:56:14.871Z,47.30
2022-08-22T10:57:36.434Z,47.35
2022-08-22T10:58:40.826Z,47.30
2022-08-22T10:59:50.589Z,47.31
2022-08-22T11:00:54.299Z,47.21
2022-08-22T11:02:04.419Z,47.35
2022-08-22T11:03:15.126Z,47.19
2022-08-22T11:04:30.993Z,47.29
2022-08-22T11:05:35.652Z,47.36
2022-08-22T11:06:41.769Z,47.28
2022-08-22T11:07:50.266Z,47.07
2022-08-22T11:09:10.822Z,47.13
2022-08-22T11:10:21.014Z,47.21
2022-08-22T11:11:36.247Z,46.94
2022-08-22T11:12:44.490Z,46.89
2022-08-22T11:13:57.063Z,47.06
2022-08-22T11:15:07.503Z,47.20
2022-08-22T11:16:26.397Z,47.17
2022-08-22T11:17:40.686Z,47.04
2022-08-22T11:19:01.811Z,46.97
2022-08-22T11:20:15.992Z,47.11
2022-08-22T11:21:27.664Z,46.85
2022-08-22T11:22:34.843Z,46.34
2022-08-22T11:23:39.534Z,46.61
2022-08-22T11:25:04.730Z,46.65
2022-08-22T11:26:14.498Z,46.62
2022-08-22T11:27:39.749Z,46.69
2022-08-22T11:29:14.090Z,46.56
2022-08-22T11:30:19.317Z,46.58
2022-08-22T11:31:31.833Z,46.59
2022-08-22T11:32:40.804Z,46.80
2022-08-22T11:33:51.018Z,46.87
2022-08-22T11:34:57.540Z,46.88
2022-08-22T11:36:09.421Z,46.46
2022-08-22T11:37:42.861Z,46.83
2022-08-22T11:38:50.550Z,46.45
2022-08-22T11:40:04.439Z,46.66
2022-08-22T11:41:12.986Z,46.52
2022-08-22T11:42:22.152Z,46.19
2022-08-22T11:43:44.314Z,46.50
2022-08-22T11:44:51.945Z,46.18
2022-08-22T11:45:57.025Z,46.19
2022-08-22T11:47:01.497Z,46.41
2022-08-22T11:48:09.698Z,46.23
2022-08-22T11:49:27.987Z,46.50
2022-08-22T11:50:37.376Z,46.25
2022-08-22T11:51:55.510Z,46.15
2022-08-22T11:53:08.084Z,46.39
2022-08-22T11:54:14.399Z,46.35
2022-08-22T11:55:21.541Z,46.22
2022-08-22T11:56:29.212Z,45.91
2022-08-22T11:57:34.660Z,46.33
2022-08-22T11:58:43.938Z,46.37
2022-08-22T12:00:00.242Z,46.05
2022-08-22T12:01:05.472Z,45.98
2022-08-22T12:02:17.548Z,46.23
2022-08-22T12:03:27.882Z,46.26
2022-08-22T12:04:33.265Z,46.38
2022-08-22T12:05:40.109Z,46.09
2022-08-22T12:06:54.537Z,46.34
2022-08-22T12:08:06.694Z,46.07
2022-08-22T12:09:12.272Z,46.15
2022-08-22T12:10:17.201Z,46.07
2022-08-22T12:11:23.816Z,45.99
2022-08-22T12:12:43.692Z,46.11
2022-08-22T12:13:49.764Z,46.00
2022-08-22T12:14:57.321Z,46.13
2022-08-22T12:16:03.894Z,45.80
2022-08-22T12:17:26.253Z,46.37
2022-08-22T12:18:56.062Z,46.27
2022-08-22T12:20:16.853Z,46.14
2022-08-22T12:21:38.368Z,45.92
2022-08-22T12:22:51.347Z,46.00
2022-08-22T12:24:00.574Z,46.09
2022-08-22T12:25:13.613Z,46.19
2022-08-22T12:26:21.943Z,46.06
2022-08-22T12:27:55.269Z,46.18
2022-08-22T12:29:15.651Z,46.17
2022-08-22T12:30:22.546Z,45.81
2022-08-22T12:31:31.234Z,46.13
2022-08-22T12:32:45.847Z,45.89
2022-08-22T12:34:00.506Z,45.84
2022-08-22T12:35:18.638Z,46.09
2022-08-22T12:36:27.272Z,46.05
2022-08-22T12:37:33.021Z,46.13
2022-08-22T12:39:09.317Z,46.07
2022-08-22T12:40:26.321Z,46.04
2022-08-22T12:41:46.707Z,46.05
2022-08-22T12:43:00.818Z,46.03
2022-08-22T12:44:17.007Z,45.97
2022-08-22T12:45:28.189Z,46.04
2022-08-22T12:46:47.333Z,46.06
2022-08-22T12:47:55.380Z,46.00
2022-08-22T12:49:09.174Z,45.95
2022-08-22T12:50:19.384Z,46.10
2022-08-22T12:51:29.454Z,46.06
2022-08-22T12:52:37.795Z,46.07
2022-08-22T12:53:51.062Z,45.94
2022-08-22T12:55:03.745Z,46.02
2022-08-22T12:56:13.499Z,45.82
2022-08-22T12:57:23.704Z,45.88
2022-08-22T12:58:33.975Z,46.10
2022-08-22T12:59:40.351Z,45.90
2022-08-22T13:00:47.392Z,46.11
2022-08-22T13:01:50.584Z,45.86
2022-08-22T13:02:54.182Z,46.12
2022-08-22T13:03:57.797Z,46.04
2022-08-22T13:05:01.789Z,45.83
2022-08-22T13:06:07.841Z,46.11
2022-08-22T13:07:23.154Z,46.15
2022-08-22T13:08:29.643Z,46.11
2022-08-22T13:09:34.313Z,45.88
2022-08-22T13:10:39.684Z,46.17
2022-08-22T13:11:45.955Z,45.94
2022-08-22T13:12:51.168Z,45.87
2022-08-22T13:13:56.568Z,45.98
2022-08-22T13:15:06.729Z,46.23
2022-08-22T13:16:15.608Z,46.10
2022-08-22T13:17:24.252Z,46.15
2022-08-22T13:18:32.310Z,46.30
2022-08-22T13:19:46.515Z,46.34
2022-08-22T13:20:51.457Z,46.38
2022-08-22T13:21:57.241Z,46.30
2022-08-22T13:23:00.821Z,46.39
2022-08-22T13:24:05.665Z,46.27
2022-08-22T13:25:25.410Z,46.44
2022-08-22T13:26:33.516Z,46.48
2022-08-22T13:27:51.318Z,46.43
2022-08-22T13:29:25.208Z,46.41
2022-08-22T13:30:32.968Z,46.52
2022-08-22T13:31:36.149Z,46.85
2022-08-22T13:32:40.521Z,47.00
2022-08-22T13:33:48.102Z,47.19
2022-08-22T13:34:54.041Z,46.79
2022-08-22T13:35:58.245Z,46.93
2022-08-22T13:37:04.854Z,47.03
2022-08-22T13:38:12.346Z,46.78
2022-08-22T13:39:25.859Z,46.73
2022-08-22T13:40:30.543Z,46.93
2022-08-22T13:41:38.251Z,46.79
2022-08-22T13:42:48.716Z,46.56
2022-08-22T13:44:12.503Z,46.49
2022-08-22T13:45:22.817Z,46.29
2022-08-22T13:46:28.057Z,46.03
2022-08-22T13:47:34.507Z,45.88
2022-08-22T13:48:49.546Z,46.23
2022-08-22T13:49:52.874Z,46.32
2022-08-22T13:51:05.639Z,46.22
2022-08-22T13:52:29.047Z,46.22
2022-08-22T13:53:37.093Z,46.03
2022-08-22T13:54:45.875Z,46.26
2022-08-22T13:55:50.527Z,46.07
2022-08-22T13:56:56.567Z,46.10
2022-08-22T13:58:01.799Z,46.05
2022-08-22T13:59:07.613Z,46.17
2022-08-22T14:00:29.486Z,46.34
2022-08-22T14:01:39.158Z,46.28
2022-08-22T14:02:49.365Z,46.38
2022-08-22T14:03:56.713Z,46.25
2022-08-22T14:05:03.999Z,46.63
2022-08-22T14:06:37.248Z,46.42
2022-08-22T14:07:38.818Z,46.74
2022-08-22T14:08:45.751Z,46.60
2022-08-22T14:09:55.901Z,46.68
2022-08-22T14:11:02.026Z,46.87
2022-08-22T14:12:12.673Z,47.05
2022-08-22T14:13:29.809Z,46.64
2022-08-22T14:14:35.522Z,46.95
2022-08-22T14:15:45.807Z,46.81
2022-08-22T14:16:52.205Z,46.96
2022-08-22T14:17:57.494Z,46.82
2022-08-22T14:19:06.210Z,47.17
2022-08-22T14:20:12.545Z,46.93
2022-08-22T14:21:20.439Z,46.90
2022-08-22T14:22:31.983Z,47.21
2022-08-22T14:23:37.313Z,47.51
2022-08-22T14:24:45.646Z,47.06
2022-08-22T14:25:47.932Z,47.02
2022-08-22T14:26:53.779Z,47.37
2022-08-22T14:28:03.682Z,47.36
2022-08-22T14:29:13.498Z,47.58
2022-08-22T14:30:18.893Z,47.21
2022-08-22T14:31:23.107Z,47.28
2022-08-22T14:32:41.808Z,47.61
2022-08-22T14:33:47.221Z,47.37
2022-08-22T14:34:54.134Z,47.61
2022-08-22T14:35:57.950Z,48.30
2022-08-22T14:37:07.968Z,48.49
2022-08-22T14:38:17.558Z,48.47
2022-08-22T14:39:24.289Z,48.59
2022-08-22T14:40:29.559Z,48.40
2022-08-22T14:41:52.578Z,48.43
2022-08-22T14:43:00.448Z,48.54
2022-08-22T14:44:04.051Z,48.37
2022-08-22T14:45:11.197Z,47.88
2022-08-22T14:46:18.442Z,47.76
2022-08-22T14:47:43.329Z,47.75
2022-08-22T14:49:04.215Z,48.17
2022-08-22T14:50:11.447Z,48.03
2022-08-22T14:51:18.603Z,48.48
2022-08-22T14:52:29.526Z,48.58
2022-08-22T14:53:34.269Z,48.74
2022-08-22T14:54:36.396Z,49.18
2022-08-22T14:55:40.665Z,49.37
2022-08-22T14:56:45.957Z,49.76
2022-08-22T14:57:53.789Z,49.67